.
WxDataArchive / Data Records for 2007-01-27
2007-01-26 January 2007 2007-01-28

Data Records for Saturday, 27 January 2007

Time	Temp	Chill	HIndex	Humid	Dewpt	 Wind 	HiWind	WindDir	Rain 	Barom 
-----	----	-----	------	-----	-----	------	------	-------	-----	----- 
00:00	41.1	37.1	41.1	67	31.0	6	12	270	0.00	29.600 
00:05	41.1	37.1	41.1	67	31.0	6	14	270	0.00	29.600 
00:10	41.2	36.6	41.2	67	31.1	7	14	270	0.00	29.600 
00:15	41.2	37.2	41.2	67	31.1	6	22	270	0.00	29.597 
00:20	41.2	36.6	41.2	67	31.1	7	14	248	0.00	29.597 
00:25	41.2	37.9	41.2	67	31.1	5	16	270	0.00	29.597 
00:30	41.2	37.9	41.2	68	31.5	5	12	270	0.00	29.596 
00:35	41.2	37.9	41.2	68	31.5	5	13	270	0.00	29.596 
00:40	41.3	37.3	41.3	68	31.5	6	15	248	0.00	29.596 
00:45	41.3	38.0	41.3	68	31.5	5	15	270	0.00	29.592 
00:50	41.5	36.9	41.5	68	31.7	7	13	270	0.00	29.592 
00:55	41.6	37.1	41.6	67	31.5	7	15	270	0.00	29.592 
01:00	41.5	38.2	41.5	68	31.7	5	15	270	0.00	29.588 
01:05	41.5	36.9	41.5	68	31.7	7	19	248	0.00	29.588 
01:10	41.6	37.1	41.6	68	31.8	7	18	270	0.01	29.588 
01:15	41.6	37.1	41.6	68	31.8	7	16	270	0.00	29.590 
01:20	41.5	37.5	41.5	69	32.1	6	13	270	0.00	29.590 
01:25	41.5	37.5	41.5	69	32.1	6	16	270	0.00	29.590 
01:30	41.2	37.2	41.2	69	31.8	6	14	270	0.00	29.581 
01:35	41.2	36.6	41.2	69	31.8	7	14	270	0.00	29.581 
01:40	41.1	37.8	41.1	70	32.1	5	13	270	0.00	29.581 
01:45	40.9	36.2	40.9	70	31.9	7	15	270	0.00	29.584 
01:50	40.8	36.7	40.8	70	31.8	6	17	270	0.00	29.584 
01:55	40.6	37.2	40.6	71	31.9	5	11	270	0.00	29.584 
02:00	40.3	36.8	40.3	71	31.7	5	13	270	0.00	29.592 
02:05	40.3	36.8	40.3	72	32.0	5	17	270	0.00	29.592 
02:10	40.2	36.7	40.2	72	31.9	5	12	270	0.00	29.592 
02:15	40.1	36.6	40.1	72	31.8	5	13	270	0.00	29.593 
02:20	39.9	36.4	39.9	73	32.0	5	11	270	0.00	29.593 
02:25	39.8	36.2	39.8	73	31.9	5	13	270	0.00	29.593 
02:30	39.6	36.9	39.6	73	31.7	4	10	270	0.00	29.600 
02:35	39.6	35.3	39.6	74	32.0	6	15	270	0.00	29.600 
02:40	39.6	35.3	39.6	74	32.0	6	15	270	0.00	29.600 
02:45	39.5	36.7	39.5	74	31.9	4	11	270	0.00	29.607 
02:50	39.3	36.5	39.3	74	31.7	4	10	270	0.00	29.607 
02:55	39.2	36.4	39.2	75	32.0	4	11	270	0.00	29.607 
03:00	39.1	35.4	39.1	75	31.9	5	9	270	0.00	29.609 
03:05	39.1	36.3	39.1	75	31.9	4	12	270	0.00	29.609 
03:10	38.9	38.9	38.9	76	32.0	3	7	270	0.00	29.609 
03:15	38.9	36.0	38.9	76	32.0	4	10	270	0.00	29.611 
03:20	38.9	36.0	38.9	76	32.0	4	15	270	0.00	29.611 
03:25	38.8	35.9	38.8	76	31.9	4	11	270	0.00	29.611 
03:30	38.5	38.5	38.5	76	31.6	3	9	270	0.00	29.610 
03:35	38.3	35.4	38.3	77	31.7	4	9	270	0.00	29.610 
03:40	38.2	35.2	38.2	77	31.6	4	9	270	0.00	29.610 
03:45	38.0	38.0	38.0	77	31.4	3	7	270	0.00	29.612 
03:50	37.9	37.9	37.9	78	31.7	3	7	248	0.00	29.612 
03:55	37.6	37.6	37.6	78	31.4	3	11	248	0.00	29.612 
04:00	37.6	37.6	37.6	78	31.4	3	7	270	0.00	29.610 
04:05	37.5	37.5	37.5	78	31.3	3	7	270	0.00	29.610 
04:10	37.3	37.3	37.3	79	31.4	3	6	248	0.00	29.610 
04:15	37.2	37.2	37.2	79	31.3	3	6	270	0.00	29.609 
04:20	37.2	37.2	37.2	79	31.3	3	11	270	0.00	29.609 
04:25	37.0	37.0	37.0	79	31.1	3	10	270	0.00	29.609 
04:30	36.9	36.9	36.9	80	31.3	3	10	270	0.00	29.618 
04:35	36.8	36.8	36.8	80	31.2	3	6	270	0.00	29.618 
04:40	36.6	36.6	36.6	80	31.0	2	7	270	0.00	29.618 
04:45	36.5	36.5	36.5	81	31.2	3	10	270	0.00	29.624 
04:50	36.5	36.5	36.5	81	31.2	3	7	270	0.00	29.624 
04:55	36.5	36.5	36.5	81	31.2	2	5	248	0.00	29.624 
05:00	36.5	36.5	36.5	81	31.2	3	6	270	0.00	29.627 
05:05	36.5	36.5	36.5	81	31.2	2	9	270	0.00	29.627 
05:10	36.5	36.5	36.5	81	31.2	2	8	270	0.00	29.627 
05:15	36.5	36.5	36.5	81	31.2	3	7	270	0.00	29.634 
05:20	36.3	36.3	36.3	80	30.7	3	6	248	0.00	29.634 
05:25	36.3	36.3	36.3	80	30.7	3	7	270	0.00	29.634 
05:30	36.5	36.5	36.5	79	30.6	3	5	270	0.00	29.639 
05:35	36.3	36.3	36.3	80	30.7	3	6	270	0.00	29.639 
05:40	36.3	36.3	36.3	80	30.7	3	6	270	0.00	29.639 
05:45	36.3	36.3	36.3	79	30.4	2	7	270	0.00	29.642 
05:50	36.2	36.2	36.2	80	30.6	2	5	248	0.00	29.642 
05:55	36.0	36.0	36.0	80	30.4	2	7	248	0.00	29.642 
06:00	36.0	36.0	36.0	80	30.4	2	6	270	0.00	29.647 
06:05	36.0	36.0	36.0	80	30.4	2	9	248	0.00	29.647 
06:10	35.9	35.9	35.9	81	30.6	2	4	270	0.00	29.647 
06:15	35.9	35.9	35.9	81	30.6	2	6	248	0.00	29.650 
06:20	35.9	35.9	35.9	81	30.6	2	5	248	0.00	29.650 
06:25	35.8	35.8	35.8	81	30.6	2	7	248	0.00	29.650 
06:30	35.8	35.8	35.8	81	30.6	2	6	270	0.00	29.654 
06:35	35.6	35.6	35.6	81	30.4	2	5	248	0.00	29.654 
06:40	35.6	35.6	35.6	81	30.4	2	3	225	0.00	29.654 
06:45	35.6	35.6	35.6	81	30.4	2	4	248	0.00	29.657 
06:50	35.5	35.5	35.5	81	30.3	1	4	248	0.00	29.657 
06:55	35.5	35.5	35.5	81	30.3	1	5	248	0.00	29.657 
07:00	35.5	35.5	35.5	82	30.6	2	3	270	0.00	29.663 
07:05	35.3	35.3	35.3	82	30.4	1	4	248	0.00	29.663 
07:10	35.3	35.3	35.3	82	30.4	1	4	248	0.00	29.663 
07:15	35.3	35.3	35.3	82	30.4	2	4	248	0.00	29.672 
07:20	35.2	35.2	35.2	81	30.0	1	3	270	0.00	29.672 
07:25	35.2	35.2	35.2	81	30.0	1	3	248	0.00	29.672 
07:30	35.0	35.0	35.0	81	29.8	1	4	248	0.00	29.674 
07:35	35.0	35.0	35.0	81	29.8	1	4	248	0.00	29.674 
07:40	35.0	35.0	35.0	81	29.8	2	5	248	0.00	29.674 
07:45	34.9	34.9	34.9	81	29.7	1	4	248	0.00	29.680 
07:50	34.9	34.9	34.9	81	29.7	2	6	270	0.00	29.680 
07:55	34.9	34.9	34.9	81	29.7	2	7	248	0.00	29.680 
08:00	34.9	34.9	34.9	81	29.7	2	4	270	0.00	29.688 
08:05	34.7	34.7	34.7	81	29.5	2	4	248	0.00	29.688 
08:10	34.7	34.7	34.7	81	29.5	2	6	248	0.00	29.688 
08:15	34.7	34.7	34.7	81	29.5	3	7	248	0.00	29.692 
08:20	34.7	34.7	34.7	81	29.5	2	6	270	0.00	29.692 
08:25	34.7	34.7	34.7	81	29.5	2	7	248	0.00	29.692 
08:30	34.6	34.6	34.6	81	29.4	2	7	248	0.00	29.698 
08:35	34.6	34.6	34.6	81	29.4	2	6	270	0.00	29.698 
08:40	34.6	34.6	34.6	81	29.4	3	6	248	0.00	29.698 
08:45	34.4	34.4	34.4	81	29.2	2	9	248	0.00	29.701 
08:50	34.4	34.4	34.4	81	29.2	3	9	270	0.00	29.701 
08:55	34.4	34.4	34.4	81	29.2	3	7	270	0.00	29.701 
09:00	34.4	34.4	34.4	81	29.2	3	6	270	0.00	29.703 
09:05	34.3	34.3	34.3	81	29.1	2	7	248	0.00	29.703 
09:10	34.3	34.3	34.3	81	29.1	2	5	270	0.00	29.703 
09:15	34.3	34.3	34.3	81	29.1	2	7	270	0.00	29.705 
09:20	34.3	34.3	34.3	81	29.1	3	7	248	0.00	29.705 
09:25	34.3	34.3	34.3	81	29.1	2	5	270	0.00	29.705 
09:30	34.3	34.3	34.3	81	29.1	3	7	248	0.00	29.708 
09:35	34.3	34.3	34.3	81	29.1	2	6	248	0.00	29.708 
09:40	34.3	34.3	34.3	81	29.1	2	6	248	0.00	29.708 
09:45	34.1	30.5	34.1	81	28.9	4	7	270	0.00	29.718 
09:50	34.1	34.1	34.1	81	28.9	3	7	270	0.00	29.718 
09:55	34.1	34.1	34.1	81	28.9	3	8	248	0.00	29.718 
10:00	34.1	34.1	34.1	81	28.9	3	7	248	0.00	29.720 
10:05	34.3	34.3	34.3	81	29.1	2	9	270	0.00	29.720 
10:10	34.3	34.3	34.3	81	29.1	3	7	248	0.00	29.720 
10:15	34.4	34.4	34.4	81	29.2	3	5	248	0.00	29.719 
10:20	34.4	34.4	34.4	81	29.2	3	5	248	0.00	29.719 
10:25	34.6	34.6	34.6	81	29.4	3	11	248	0.00	29.719 
10:30	34.6	34.6	34.6	81	29.4	3	9	248	0.00	29.718 
10:35	34.6	34.6	34.6	81	29.4	3	10	248	0.00	29.718 
10:40	34.7	34.7	34.7	80	29.2	2	5	248	0.00	29.718 
10:45	34.7	34.7	34.7	80	29.2	3	9	270	0.00	29.717 
10:50	34.6	34.6	34.6	80	29.1	3	7	270	0.00	29.717 
10:55	34.6	34.6	34.6	81	29.4	3	6	248	0.00	29.717 
11:00	34.7	34.7	34.7	80	29.2	3	11	270	0.00	29.716 
11:05	34.7	34.7	34.7	80	29.2	3	6	248	0.00	29.716 
11:10	34.9	34.9	34.9	80	29.4	3	9	248	0.00	29.716 
11:15	35.2	35.2	35.2	80	29.7	2	6	248	0.00	29.716 
11:20	35.5	35.5	35.5	78	29.3	2	6	248	0.00	29.716 
11:25	35.5	35.5	35.5	78	29.3	2	7	248	0.00	29.716 
11:30	35.3	31.9	35.3	77	28.8	4	10	248	0.00	29.716 
11:35	35.3	35.3	35.3	78	29.1	3	9	270	0.00	29.716 
11:40	35.2	35.2	35.2	77	28.7	3	9	248	0.00	29.716 
11:45	35.3	35.3	35.3	78	29.1	2	6	270	0.00	29.714 
11:50	35.3	35.3	35.3	77	28.8	2	7	248	0.00	29.714 
11:55	35.3	35.3	35.3	77	28.8	2	7	270	0.00	29.714 
12:00	35.3	35.3	35.3	78	29.1	3	7	248	0.00	29.706 
12:05	35.2	35.2	35.2	77	28.7	3	7	248	0.00	29.706 
12:10	35.3	35.3	35.3	77	28.8	3	7	248	0.00	29.706 
12:15	35.5	35.5	35.5	77	29.0	2	6	248	0.00	29.702 
12:20	35.6	35.6	35.6	77	29.1	3	7	270	0.00	29.702 
12:25	35.9	35.9	35.9	76	29.1	3	5	248	0.00	29.702 
12:30	36.0	36.0	36.0	76	29.2	2	6	248	0.00	29.697 
12:35	36.2	36.2	36.2	76	29.4	2	4	248	0.00	29.697 
12:40	36.0	36.0	36.0	74	28.5	3	9	248	0.00	29.697 
12:45	35.9	35.9	35.9	75	28.8	2	6	270	0.00	29.688 
12:50	36.0	36.0	36.0	75	28.9	2	7	248	0.00	29.688 
12:55	36.0	36.0	36.0	73	28.2	3	11	248	0.00	29.688 
13:00	36.2	36.2	36.2	73	28.4	3	6	248	0.00	29.685 
13:05	36.3	33.0	36.3	71	27.8	4	10	248	0.00	29.685 
13:10	36.3	36.3	36.3	72	28.2	3	6	248	0.00	29.685 
13:15	36.3	36.3	36.3	73	28.5	3	7	248	0.00	29.686 
13:20	36.5	36.5	36.5	72	28.3	2	6	248	0.00	29.686 
13:25	36.2	36.2	36.2	73	28.4	3	10	248	0.00	29.686 
13:30	35.9	32.6	35.9	73	28.1	4	10	248	0.00	29.683 
13:35	35.6	35.6	35.6	74	28.1	3	11	270	0.00	29.683 
13:40	35.5	35.5	35.5	74	28.0	1	4	248	0.00	29.683 
13:45	35.5	32.1	35.5	74	28.0	4	9	248	0.00	29.680 
13:50	35.3	31.9	35.3	74	27.9	4	7	248	0.00	29.680 
13:55	35.3	31.9	35.3	74	27.9	4	9	248	0.00	29.680 
14:00	35.5	35.5	35.5	73	27.7	3	9	270	0.00	29.671 
14:05	35.9	35.9	35.9	73	28.1	3	9	270	0.00	29.671 
14:10	36.2	36.2	36.2	72	28.1	3	7	270	0.00	29.671 
14:15	36.2	36.2	36.2	71	27.7	3	7	270	0.00	29.673 
14:20	35.9	35.9	35.9	70	27.1	3	9	270	0.00	29.673 
14:25	35.6	35.6	35.6	72	27.5	3	7	270	0.00	29.673 
14:30	35.3	35.3	35.3	73	27.5	3	10	270	0.00	29.673 
14:35	35.0	31.5	35.0	72	26.9	4	15	270	0.00	29.673 
14:40	34.6	30.1	34.6	74	27.2	5	13	270	0.00	29.673 
14:45	34.4	30.8	34.4	76	27.6	4	10	270	0.00	29.688 
14:50	34.0	28.6	34.0	76	27.2	6	12	270	0.00	29.688 
14:55	33.8	30.2	33.8	76	27.1	4	10	270	0.00	29.688 
15:00	33.7	30.0	33.7	76	27.0	4	9	270	0.00	29.691 
15:05	33.7	30.0	33.7	76	27.0	4	9	270	0.00	29.691 
15:10	33.8	33.8	33.8	77	27.4	3	6	270	0.00	29.691 
15:15	33.7	30.0	33.7	76	27.0	4	12	270	0.00	29.698 
15:20	33.7	33.7	33.7	76	27.0	3	9	270	0.00	29.698 
15:25	33.7	33.7	33.7	76	27.0	3	9	270	0.00	29.698 
15:30	33.5	29.8	33.5	76	26.8	4	10	270	0.00	29.705 
15:35	33.4	33.4	33.4	77	27.0	3	7	270	0.00	29.705 
15:40	33.2	29.5	33.2	77	26.8	4	10	270	0.00	29.705 
15:45	33.1	33.1	33.1	78	27.0	3	7	270	0.00	29.702 
15:50	33.1	33.1	33.1	79	27.3	3	7	270	0.00	29.702 
15:55	33.1	33.1	33.1	80	27.6	3	7	270	0.00	29.702 
16:00	32.9	32.9	32.9	80	27.4	3	11	270	0.00	29.710 
16:05	32.8	28.0	32.8	81	27.6	5	16	270	0.00	29.710 
16:10	32.4	26.7	32.4	83	27.8	6	17	270	0.00	29.710 
16:15	32.2	28.3	32.2	84	27.9	4	9	270	0.00	29.720 
16:20	32.1	32.1	32.1	84	27.8	3	9	270	0.00	29.720 
16:25	32.1	27.2	32.1	82	27.2	5	15	270	0.00	29.720 
16:30	32.1	28.2	32.1	82	27.2	4	11	270	0.00	29.725 
16:35	32.1	28.2	32.1	81	26.9	4	10	270	0.00	29.725 
16:40	31.9	27.0	31.9	80	26.4	5	13	270	0.00	29.725 
16:45	31.9	27.0	31.9	80	26.4	5	11	270	0.00	29.728 
16:50	31.9	31.9	31.9	80	26.4	3	10	270	0.00	29.728 
16:55	31.8	27.8	31.8	80	26.3	4	10	270	0.00	29.728 
17:00	31.8	27.8	31.8	79	26.0	4	11	270	0.00	29.727 
17:05	31.8	27.8	31.8	79	26.0	4	13	248	0.00	29.727 
17:10	31.6	26.6	31.6	78	25.5	5	13	270	0.00	29.727 
17:15	31.6	27.6	31.6	78	25.5	4	12	270	0.00	29.737 
17:20	31.5	27.5	31.5	77	25.1	4	13	270	0.00	29.737 
17:25	31.5	31.5	31.5	78	25.4	3	9	270	0.00	29.737 
17:30	31.3	26.3	31.3	78	25.3	5	14	270	0.00	29.743 
17:35	30.9	24.9	30.9	78	24.9	6	15	270	0.00	29.743 
17:40	30.7	23.9	30.7	78	24.7	7	14	270	0.00	29.743 
17:45	30.6	30.6	30.6	78	24.6	3	8	270	0.00	29.744 
17:50	30.4	25.2	30.4	77	24.1	5	11	270	0.00	29.744 
17:55	30.3	26.1	30.3	78	24.3	4	12	270	0.00	29.744 
18:00	30.1	25.9	30.1	78	24.1	4	12	270	0.00	29.756 
18:05	30.0	25.8	30.0	78	24.0	4	10	270	0.00	29.756 
18:10	29.8	24.5	29.8	78	23.8	5	13	270	0.00	29.756 
18:15	29.8	29.8	29.8	77	23.5	3	10	248	0.00	29.765 
18:20	29.8	24.5	29.8	77	23.5	5	12	248	0.00	29.765 
18:25	29.8	29.8	29.8	76	23.2	3	7	270	0.00	29.765 
18:30	29.8	29.8	29.8	76	23.2	3	8	270	0.00	29.775 
18:35	29.8	29.8	29.8	75	22.9	3	6	270	0.00	29.775 
18:40	29.8	29.8	29.8	74	22.5	3	5	270	0.00	29.775 
18:45	29.8	29.8	29.8	73	22.2	2	6	270	0.00	29.784 
18:50	29.8	29.8	29.8	73	22.2	2	7	270	0.00	29.784 
18:55	29.8	29.8	29.8	72	21.9	3	7	270	0.00	29.784 
19:00	29.8	29.8	29.8	71	21.6	3	6	270	0.00	29.789 
19:05	29.8	29.8	29.8	72	21.9	3	5	292	0.00	29.789 
19:10	29.7	29.7	29.7	71	21.5	3	6	270	0.00	29.789 
19:15	29.7	29.7	29.7	72	21.8	1	4	270	0.00	29.794 
19:20	29.7	29.7	29.7	71	21.5	3	6	248	0.00	29.794 
19:25	29.7	29.7	29.7	71	21.5	3	6	270	0.00	29.794 
19:30	29.7	29.7	29.7	72	21.8	2	4	270	0.00	29.794 
19:35	29.7	29.7	29.7	72	21.8	3	6	270	0.00	29.794 
19:40	29.7	29.7	29.7	72	21.8	2	5	248	0.00	29.794 
19:45	29.7	29.7	29.7	72	21.8	2	7	270	0.00	29.797 
19:50	29.7	29.7	29.7	71	21.5	3	7	270	0.00	29.797 
19:55	29.7	29.7	29.7	72	21.8	2	7	270	0.00	29.797 
20:00	29.5	29.5	29.5	72	21.6	2	4	270	0.00	29.798 
20:05	29.5	29.5	29.5	72	21.6	3	7	270	0.00	29.798 
20:10	29.5	29.5	29.5	73	21.9	3	6	270	0.00	29.798 
20:15	29.4	25.1	29.4	73	21.8	4	9	270	0.00	29.806 
20:20	29.3	29.3	29.3	75	22.4	3	6	270	0.00	29.806 
20:25	29.1	29.1	29.1	75	22.2	2	4	270	0.00	29.806 
20:30	29.1	29.1	29.1	76	22.5	2	5	270	0.00	29.800 
20:35	29.0	29.0	29.0	77	22.7	2	4	248	0.00	29.800 
20:40	29.0	29.0	29.0	77	22.7	3	9	270	0.00	29.800 
20:45	29.0	29.0	29.0	77	22.7	2	5	270	0.00	29.806 
20:50	29.0	29.0	29.0	77	22.7	2	5	270	0.00	29.806 
20:55	29.0	29.0	29.0	77	22.7	3	7	270	0.00	29.806 
21:00	29.0	29.0	29.0	78	23.0	2	5	270	0.00	29.808 
21:05	28.8	28.8	28.8	80	23.4	2	4	270	0.00	29.808 
21:10	28.7	28.7	28.7	80	23.3	2	4	270	0.00	29.808 
21:15	28.7	28.7	28.7	80	23.3	2	6	248	0.00	29.809 
21:20	28.7	28.7	28.7	80	23.3	1	3	248	0.00	29.809 
21:25	28.7	28.7	28.7	81	23.6	2	5	292	0.00	29.809 
21:30	28.4	28.4	28.4	82	23.6	2	6	248	0.00	29.810 
21:35	28.4	28.4	28.4	82	23.6	3	5	270	0.00	29.810 
21:40	28.2	28.2	28.2	83	23.7	2	5	270	0.00	29.810 
21:45	28.2	28.2	28.2	82	23.4	2	5	270	0.00	29.811 
21:50	28.2	28.2	28.2	81	23.1	3	7	270	0.00	29.811 
21:55	28.4	28.4	28.4	81	23.3	2	5	270	0.00	29.811 
22:00	28.4	28.4	28.4	81	23.3	2	5	270	0.00	29.815 
22:05	28.4	28.4	28.4	81	23.3	2	3	270	0.00	29.815 
22:10	28.2	28.2	28.2	81	23.1	2	9	270	0.00	29.815 
22:15	28.2	28.2	28.2	81	23.1	1	2	270	0.00	29.818 
22:20	28.2	28.2	28.2	82	23.4	2	7	248	0.00	29.818 
22:25	27.9	27.9	27.9	83	23.4	2	5	270	0.00	29.818 
22:30	27.9	27.9	27.9	83	23.4	2	5	270	0.00	29.818 
22:35	27.8	27.8	27.8	84	23.6	1	4	270	0.00	29.818 
22:40	27.8	27.8	27.8	84	23.6	1	4	270	0.00	29.818 
22:45	27.8	27.8	27.8	84	23.6	1	4	270	0.00	29.820 
22:50	27.8	27.8	27.8	84	23.6	2	4	270	0.00	29.820 
22:55	27.8	27.8	27.8	83	23.3	2	4	270	0.00	29.820 
23:00	27.6	27.6	27.6	83	23.1	2	5	270	0.00	29.822 
23:05	27.5	27.5	27.5	84	23.3	3	6	270	0.00	29.822 
23:10	27.3	27.3	27.3	86	23.7	2	5	292	0.00	29.822 
23:15	27.0	27.0	27.0	87	23.7	1	2	248	0.00	29.821 
23:20	26.9	26.9	26.9	88	23.8	1	4	270	0.00	29.821 
23:25	26.9	26.9	26.9	88	23.8	0	2	248	0.00	29.821 
23:30	26.9	26.9	26.9	89	24.1	1	2	248	0.00	29.818 
23:35	26.9	26.9	26.9	88	23.8	1	3	248	0.00	29.818 
23:40	26.9	26.9	26.9	88	23.8	0	2	270	0.00	29.818 
23:45	26.9	26.9	26.9	88	23.8	0	2	270	0.00	29.823 
23:50	26.9	26.9	26.9	88	23.8	1	2	292	0.00	29.823 
23:55	26.7	26.7	26.7	89	23.9	1	4	292	0.00	29.823 

CoCoRaHS
IN-AL-39
A2 Web Hosting
Creative Commons License
GoDaddy
Look for:

loaded 2017-12-12 17:12:57 • last modified 2010-11-18 10:43:29
Privacy PolicyDisclaimer
• wx.awcolley.com is powered by PmWiki v.2002016 •
• all content (unless otherwise noted) © 2017 A W Colley